sensor_id;sensor_type;location;lat;lon;timestamp;temperature;humidity
22491;DHT22;11412;50.802;4.350;2023-09-12T00:00:56;21.20;99.90
22491;DHT22;11412;50.802;4.350;2023-09-12T00:03:23;21.20;99.90
22491;DHT22;11412;50.802;4.350;2023-09-12T00:05:57;21.10;99.90
22491;DHT22;11412;50.802;4.350;2023-09-12T00:08:23;21.10;99.90
22491;DHT22;11412;50.802;4.350;2023-09-12T00:11:22;21.20;99.90
22491;DHT22;11412;50.802;4.350;2023-09-12T00:13:51;21.20;99.90
22491;DHT22;11412;50.802;4.350;2023-09-12T00:16:17;21.20;99.90
22491;DHT22;11412;50.802;4.350;2023-09-12T00:18:43;21.20;99.90
22491;DHT22;11412;50.802;4.350;2023-09-12T00:21:08;21.10;99.90
22491;DHT22;11412;50.802;4.350;2023-09-12T00:23:34;21.10;99.90
22491;DHT22;11412;50.802;4.350;2023-09-12T00:26:00;21.20;99.90
22491;DHT22;11412;50.802;4.350;2023-09-12T00:28:26;21.20;99.90
22491;DHT22;11412;50.802;4.350;2023-09-12T00:30:52;21.20;99.90
22491;DHT22;11412;50.802;4.350;2023-09-12T00:33:18;21.20;99.90
22491;DHT22;11412;50.802;4.350;2023-09-12T00:35:44;21.10;99.90
22491;DHT22;11412;50.802;4.350;2023-09-12T00:38:10;21.20;99.90
22491;DHT22;11412;50.802;4.350;2023-09-12T00:40:36;21.10;99.90
22491;DHT22;11412;50.802;4.350;2023-09-12T00:43:03;21.20;99.90
22491;DHT22;11412;50.802;4.350;2023-09-12T00:45:29;21.10;99.90
22491;DHT22;11412;50.802;4.350;2023-09-12T00:47:55;21.00;99.90
22491;DHT22;11412;50.802;4.350;2023-09-12T00:50:24;21.00;99.90
22491;DHT22;11412;50.802;4.350;2023-09-12T00:52:50;21.00;99.90
22491;DHT22;11412;50.802;4.350;2023-09-12T00:55:16;20.90;99.90
22491;DHT22;11412;50.802;4.350;2023-09-12T00:57:43;20.90;99.90
22491;DHT22;11412;50.802;4.350;2023-09-12T01:00:11;20.90;99.90
22491;DHT22;11412;50.802;4.350;2023-09-12T01:02:41;20.90;99.90
22491;DHT22;11412;50.802;4.350;2023-09-12T01:05:08;20.80;99.90
22491;DHT22;11412;50.802;4.350;2023-09-12T01:07:36;20.90;99.90
22491;DHT22;11412;50.802;4.350;2023-09-12T01:10:02;20.90;99.90
22491;DHT22;11412;50.802;4.350;2023-09-12T01:12:29;20.70;99.90
22491;DHT22;11412;50.802;4.350;2023-09-12T01:14:55;20.80;99.90
22491;DHT22;11412;50.802;4.350;2023-09-12T01:17:22;20.70;99.90
22491;DHT22;11412;50.802;4.350;2023-09-12T01:19:48;20.70;99.90
22491;DHT22;11412;50.802;4.350;2023-09-12T01:25:25;20.60;99.90
22491;DHT22;11412;50.802;4.350;2023-09-12T01:27:55;20.60;99.90
22491;DHT22;11412;50.802;4.350;2023-09-12T01:30:25;20.60;99.90
22491;DHT22;11412;50.802;4.350;2023-09-12T01:32:54;20.50;99.90
22491;DHT22;11412;50.802;4.350;2023-09-12T01:35:20;20.40;99.90
22491;DHT22;11412;50.802;4.350;2023-09-12T01:37:46;20.40;99.90
22491;DHT22;11412;50.802;4.350;2023-09-12T01:40:12;20.40;99.90
22491;DHT22;11412;50.802;4.350;2023-09-12T01:42:46;20.30;99.90
22491;DHT22;11412;50.802;4.350;2023-09-12T01:45:15;20.30;99.90
22491;DHT22;11412;50.802;4.350;2023-09-12T01:47:42;20.40;99.90
22491;DHT22;11412;50.802;4.350;2023-09-12T01:50:09;20.40;99.90
22491;DHT22;11412;50.802;4.350;2023-09-12T01:52:38;20.40;99.90
22491;DHT22;11412;50.802;4.350;2023-09-12T01:55:05;20.40;99.90
22491;DHT22;11412;50.802;4.350;2023-09-12T01:57:32;20.40;99.90
22491;DHT22;11412;50.802;4.350;2023-09-12T01:59:58;20.30;99.90
22491;DHT22;11412;50.802;4.350;2023-09-12T02:02:24;20.30;99.90
22491;DHT22;11412;50.802;4.350;2023-09-12T02:07:41;20.20;99.90
22491;DHT22;11412;50.802;4.350;2023-09-12T02:10:07;20.30;99.90
22491;DHT22;11412;50.802;4.350;2023-09-12T02:12:33;20.30;99.90
22491;DHT22;11412;50.802;4.350;2023-09-12T02:14:58;20.30;99.90
22491;DHT22;11412;50.802;4.350;2023-09-12T02:17:24;20.30;99.90
22491;DHT22;11412;50.802;4.350;2023-09-12T02:19:50;20.30;99.90
22491;DHT22;11412;50.802;4.350;2023-09-12T02:22:15;20.30;99.90
22491;DHT22;11412;50.802;4.350;2023-09-12T02:24:41;20.30;99.90
22491;DHT22;11412;50.802;4.350;2023-09-12T02:27:07;20.40;99.90
22491;DHT22;11412;50.802;4.350;2023-09-12T02:29:32;20.50;99.90
22491;DHT22;11412;50.802;4.350;2023-09-12T02:31:59;20.40;99.90
22491;DHT22;11412;50.802;4.350;2023-09-12T02:34:25;20.60;99.90
22491;DHT22;11412;50.802;4.350;2023-09-12T02:36:50;20.60;99.90
22491;DHT22;11412;50.802;4.350;2023-09-12T02:39:16;20.60;99.90
22491;DHT22;11412;50.802;4.350;2023-09-12T02:41:42;20.70;99.90
22491;DHT22;11412;50.802;4.350;2023-09-12T02:44:07;20.70;99.90
22491;DHT22;11412;50.802;4.350;2023-09-12T02:46:34;20.70;99.90
22491;DHT22;11412;50.802;4.350;2023-09-12T02:48:59;20.70;99.90
22491;DHT22;11412;50.802;4.350;2023-09-12T02:51:26;20.80;99.90
22491;DHT22;11412;50.802;4.350;2023-09-12T02:53:51;20.70;99.90
22491;DHT22;11412;50.802;4.350;2023-09-12T02:56:17;20.80;99.90
22491;DHT22;11412;50.802;4.350;2023-09-12T02:58:46;20.70;99.90
22491;DHT22;11412;50.802;4.350;2023-09-12T03:01:19;20.70;99.90
22491;DHT22;11412;50.802;4.350;2023-09-12T03:03:49;20.70;99.90
22491;DHT22;11412;50.802;4.350;2023-09-12T03:06:15;20.70;99.90
22491;DHT22;11412;50.802;4.350;2023-09-12T03:08:42;20.70;99.90
22491;DHT22;11412;50.802;4.350;2023-09-12T03:11:09;20.80;99.90
22491;DHT22;11412;50.802;4.350;2023-09-12T03:13:37;20.90;99.90
22491;DHT22;11412;50.802;4.350;2023-09-12T03:16:03;20.90;99.90
22491;DHT22;11412;50.802;4.350;2023-09-12T03:18:29;20.90;99.90
22491;DHT22;11412;50.802;4.350;2023-09-12T03:20:54;20.90;99.90
22491;DHT22;11412;50.802;4.350;2023-09-12T03:23:20;20.90;99.90
22491;DHT22;11412;50.802;4.350;2023-09-12T03:25:46;20.90;99.90
22491;DHT22;11412;50.802;4.350;2023-09-12T03:28:12;20.90;99.90
22491;DHT22;11412;50.802;4.350;2023-09-12T03:30:38;21.00;99.90
22491;DHT22;11412;50.802;4.350;2023-09-12T03:33:05;20.90;99.90
22491;DHT22;11412;50.802;4.350;2023-09-12T03:35:34;20.90;99.90
22491;DHT22;11412;50.802;4.350;2023-09-12T03:38:00;20.90;99.90
22491;DHT22;11412;50.802;4.350;2023-09-12T03:40:29;20.90;99.90
22491;DHT22;11412;50.802;4.350;2023-09-12T03:42:57;20.90;99.90
22491;DHT22;11412;50.802;4.350;2023-09-12T03:45:23;20.90;99.90
22491;DHT22;11412;50.802;4.350;2023-09-12T03:47:49;20.80;99.90
22491;DHT22;11412;50.802;4.350;2023-09-12T03:50:15;20.90;99.90
22491;DHT22;11412;50.802;4.350;2023-09-12T03:52:41;20.80;99.90
22491;DHT22;11412;50.802;4.350;2023-09-12T03:55:07;20.80;99.90
22491;DHT22;11412;50.802;4.350;2023-09-12T03:57:32;20.70;99.90
22491;DHT22;11412;50.802;4.350;2023-09-12T03:59:58;20.70;99.90
22491;DHT22;11412;50.802;4.350;2023-09-12T04:02:24;20.60;99.90
22491;DHT22;11412;50.802;4.350;2023-09-12T04:04:50;20.60;99.90
22491;DHT22;11412;50.802;4.350;2023-09-12T04:07:17;20.70;99.90
22491;DHT22;11412;50.802;4.350;2023-09-12T04:09:43;20.60;99.90
22491;DHT22;11412;50.802;4.350;2023-09-12T04:12:09;20.60;99.90
22491;DHT22;11412;50.802;4.350;2023-09-12T04:14:36;20.60;99.90
22491;DHT22;11412;50.802;4.350;2023-09-12T04:17:02;20.60;99.90
22491;DHT22;11412;50.802;4.350;2023-09-12T04:19:30;20.60;99.90
22491;DHT22;11412;50.802;4.350;2023-09-12T04:21:56;20.70;99.90
22491;DHT22;11412;50.802;4.350;2023-09-12T04:24:21;20.70;99.90
22491;DHT22;11412;50.802;4.350;2023-09-12T04:26:47;20.60;99.90
22491;DHT22;11412;50.802;4.350;2023-09-12T04:29:13;20.60;99.90
22491;DHT22;11412;50.802;4.350;2023-09-12T04:31:38;20.50;99.90
22491;DHT22;11412;50.802;4.350;2023-09-12T04:34:05;20.50;99.90
22491;DHT22;11412;50.802;4.350;2023-09-12T04:36:30;20.50;99.90
22491;DHT22;11412;50.802;4.350;2023-09-12T04:38:56;20.40;99.90
22491;DHT22;11412;50.802;4.350;2023-09-12T04:41:21;20.40;99.90
22491;DHT22;11412;50.802;4.350;2023-09-12T04:43:47;20.40;99.90
22491;DHT22;11412;50.802;4.350;2023-09-12T04:46:13;20.40;99.90
22491;DHT22;11412;50.802;4.350;2023-09-12T04:48:39;20.40;99.90
22491;DHT22;11412;50.802;4.350;2023-09-12T04:51:05;20.40;99.90
22491;DHT22;11412;50.802;4.350;2023-09-12T04:53:31;20.40;99.90
22491;DHT22;11412;50.802;4.350;2023-09-12T04:56:03;20.40;99.90
22491;DHT22;11412;50.802;4.350;2023-09-12T04:58:29;20.30;99.90
22491;DHT22;11412;50.802;4.350;2023-09-12T05:00:55;20.20;99.90
22491;DHT22;11412;50.802;4.350;2023-09-12T05:03:22;20.20;99.90
22491;DHT22;11412;50.802;4.350;2023-09-12T05:05:48;20.20;99.90
22491;DHT22;11412;50.802;4.350;2023-09-12T05:08:14;20.20;99.90
22491;DHT22;11412;50.802;4.350;2023-09-12T05:10:39;20.30;99.90
22491;DHT22;11412;50.802;4.350;2023-09-12T05:13:05;20.10;99.90
22491;DHT22;11412;50.802;4.350;2023-09-12T05:15:31;20.10;99.90
22491;DHT22;11412;50.802;4.350;2023-09-12T05:17:57;20.00;99.90
22491;DHT22;11412;50.802;4.350;2023-09-12T05:20:23;20.10;99.90
22491;DHT22;11412;50.802;4.350;2023-09-12T05:22:48;20.00;99.90
22491;DHT22;11412;50.802;4.350;2023-09-12T05:25:14;20.00;99.90
22491;DHT22;11412;50.802;4.350;2023-09-12T05:27:40;19.90;99.90
22491;DHT22;11412;50.802;4.350;2023-09-12T05:30:06;19.90;99.90
22491;DHT22;11412;50.802;4.350;2023-09-12T05:32:32;19.80;99.90
22491;DHT22;11412;50.802;4.350;2023-09-12T05:34:57;19.80;99.90
22491;DHT22;11412;50.802;4.350;2023-09-12T05:37:23;19.80;99.90
22491;DHT22;11412;50.802;4.350;2023-09-12T05:39:49;19.80;99.90
22491;DHT22;11412;50.802;4.350;2023-09-12T05:42:14;19.80;99.90
22491;DHT22;11412;50.802;4.350;2023-09-12T05:44:49;19.80;99.90
22491;DHT22;11412;50.802;4.350;2023-09-12T05:47:15;19.80;99.90
22491;DHT22;11412;50.802;4.350;2023-09-12T05:49:41;19.80;99.90
22491;DHT22;11412;50.802;4.350;2023-09-12T05:52:07;19.70;99.90
22491;DHT22;11412;50.802;4.350;2023-09-12T05:54:32;19.60;99.90
22491;DHT22;11412;50.802;4.350;2023-09-12T05:56:58;19.60;99.90
22491;DHT22;11412;50.802;4.350;2023-09-12T05:59:24;19.60;99.90
22491;DHT22;11412;50.802;4.350;2023-09-12T06:01:49;19.60;99.90
22491;DHT22;11412;50.802;4.350;2023-09-12T06:04:15;19.60;99.90
22491;DHT22;11412;50.802;4.350;2023-09-12T06:06:41;19.60;99.90
22491;DHT22;11412;50.802;4.350;2023-09-12T06:09:06;19.70;99.90
22491;DHT22;11412;50.802;4.350;2023-09-12T06:11:34;19.70;99.90
22491;DHT22;11412;50.802;4.350;2023-09-12T06:13:59;19.60;99.90
22491;DHT22;11412;50.802;4.350;2023-09-12T06:16:25;19.70;99.90
22491;DHT22;11412;50.802;4.350;2023-09-12T06:18:52;19.70;99.90
22491;DHT22;11412;50.802;4.350;2023-09-12T06:21:19;19.70;99.90
22491;DHT22;11412;50.802;4.350;2023-09-12T06:23:47;19.70;99.90
22491;DHT22;11412;50.802;4.350;2023-09-12T06:26:13;19.80;99.90
22491;DHT22;11412;50.802;4.350;2023-09-12T06:28:39;19.80;99.90
22491;DHT22;11412;50.802;4.350;2023-09-12T06:31:08;19.90;99.90
22491;DHT22;11412;50.802;4.350;2023-09-12T06:33:34;19.90;99.90
22491;DHT22;11412;50.802;4.350;2023-09-12T06:36:00;20.00;99.90
22491;DHT22;11412;50.802;4.350;2023-09-12T06:38:26;20.00;99.90
22491;DHT22;11412;50.802;4.350;2023-09-12T06:40:51;20.10;99.90
22491;DHT22;11412;50.802;4.350;2023-09-12T06:43:17;20.10;99.90
22491;DHT22;11412;50.802;4.350;2023-09-12T06:45:43;20.20;99.90
22491;DHT22;11412;50.802;4.350;2023-09-12T06:48:09;20.20;99.90
22491;DHT22;11412;50.802;4.350;2023-09-12T06:50:35;20.20;99.90
22491;DHT22;11412;50.802;4.350;2023-09-12T06:53:04;20.40;99.90
22491;DHT22;11412;50.802;4.350;2023-09-12T06:55:31;20.70;99.90
22491;DHT22;11412;50.802;4.350;2023-09-12T06:57:57;21.00;99.90
22491;DHT22;11412;50.802;4.350;2023-09-12T07:00:22;21.10;99.90
22491;DHT22;11412;50.802;4.350;2023-09-12T07:02:49;21.10;99.90
22491;DHT22;11412;50.802;4.350;2023-09-12T07:05:15;21.00;99.90
22491;DHT22;11412;50.802;4.350;2023-09-12T07:07:41;20.90;99.90
22491;DHT22;11412;50.802;4.350;2023-09-12T07:10:07;21.00;99.90
22491;DHT22;11412;50.802;4.350;2023-09-12T07:12:33;21.00;99.90
22491;DHT22;11412;50.802;4.350;2023-09-12T07:14:59;21.00;99.90
22491;DHT22;11412;50.802;4.350;2023-09-12T07:17:27;21.00;99.90
22491;DHT22;11412;50.802;4.350;2023-09-12T07:19:53;21.00;99.90
22491;DHT22;11412;50.802;4.350;2023-09-12T07:22:19;21.00;99.90
22491;DHT22;11412;50.802;4.350;2023-09-12T07:24:44;21.10;99.90
22491;DHT22;11412;50.802;4.350;2023-09-12T07:27:10;21.20;99.90
22491;DHT22;11412;50.802;4.350;2023-09-12T07:29:36;21.20;99.90
22491;DHT22;11412;50.802;4.350;2023-09-12T07:32:02;21.30;99.90
22491;DHT22;11412;50.802;4.350;2023-09-12T07:34:28;21.40;99.90
22491;DHT22;11412;50.802;4.350;2023-09-12T07:36:53;21.50;99.90
22491;DHT22;11412;50.802;4.350;2023-09-12T07:39:19;21.40;99.90
22491;DHT22;11412;50.802;4.350;2023-09-12T07:41:45;21.40;99.90
22491;DHT22;11412;50.802;4.350;2023-09-12T07:44:11;21.50;99.90
22491;DHT22;11412;50.802;4.350;2023-09-12T07:46:40;21.60;99.90
22491;DHT22;11412;50.802;4.350;2023-09-12T07:49:05;21.60;99.90
22491;DHT22;11412;50.802;4.350;2023-09-12T07:51:33;21.80;99.90
22491;DHT22;11412;50.802;4.350;2023-09-12T07:53:59;21.80;99.90
22491;DHT22;11412;50.802;4.350;2023-09-12T07:56:24;22.10;99.90
22491;DHT22;11412;50.802;4.350;2023-09-12T07:58:50;22.00;99.90
22491;DHT22;11412;50.802;4.350;2023-09-12T08:01:16;21.90;99.90
22491;DHT22;11412;50.802;4.350;2023-09-12T08:03:42;21.90;99.90
22491;DHT22;11412;50.802;4.350;2023-09-12T08:06:08;22.00;99.90
22491;DHT22;11412;50.802;4.350;2023-09-12T08:08:34;22.20;99.90
22491;DHT22;11412;50.802;4.350;2023-09-12T08:11:00;22.30;99.90
22491;DHT22;11412;50.802;4.350;2023-09-12T08:13:28;22.20;99.90
22491;DHT22;11412;50.802;4.350;2023-09-12T08:15:55;22.20;99.90
22491;DHT22;11412;50.802;4.350;2023-09-12T08:18:21;22.30;99.90
22491;DHT22;11412;50.802;4.350;2023-09-12T08:20:46;22.20;99.90
22491;DHT22;11412;50.802;4.350;2023-09-12T08:23:12;22.00;99.90
22491;DHT22;11412;50.802;4.350;2023-09-12T08:25:39;22.00;99.90
22491;DHT22;11412;50.802;4.350;2023-09-12T08:28:05;22.00;99.90
22491;DHT22;11412;50.802;4.350;2023-09-12T08:30:31;22.30;99.90
22491;DHT22;11412;50.802;4.350;2023-09-12T08:32:58;22.70;99.90
22491;DHT22;11412;50.802;4.350;2023-09-12T08:35:24;22.60;99.90
22491;DHT22;11412;50.802;4.350;2023-09-12T08:37:52;22.40;99.90
22491;DHT22;11412;50.802;4.350;2023-09-12T08:40:17;22.50;99.90
22491;DHT22;11412;50.802;4.350;2023-09-12T08:42:44;22.60;99.90
22491;DHT22;11412;50.802;4.350;2023-09-12T08:45:16;22.80;99.90
22491;DHT22;11412;50.802;4.350;2023-09-12T08:47:49;23.00;99.90
22491;DHT22;11412;50.802;4.350;2023-09-12T08:50:16;23.50;99.90
22491;DHT22;11412;50.802;4.350;2023-09-12T08:52:43;23.90;99.90
22491;DHT22;11412;50.802;4.350;2023-09-12T08:55:09;24.20;99.90
22491;DHT22;11412;50.802;4.350;2023-09-12T08:57:43;24.30;99.90
22491;DHT22;11412;50.802;4.350;2023-09-12T09:00:09;24.50;99.90
22491;DHT22;11412;50.802;4.350;2023-09-12T09:02:39;24.60;99.90
22491;DHT22;11412;50.802;4.350;2023-09-12T09:05:09;24.60;99.90
22491;DHT22;11412;50.802;4.350;2023-09-12T09:07:40;24.50;99.90
22491;DHT22;11412;50.802;4.350;2023-09-12T09:10:07;24.60;99.90
22491;DHT22;11412;50.802;4.350;2023-09-12T09:12:34;24.50;99.90
22491;DHT22;11412;50.802;4.350;2023-09-12T09:15:26;24.50;99.90
22491;DHT22;11412;50.802;4.350;2023-09-12T09:17:54;24.70;99.90
22491;DHT22;11412;50.802;4.350;2023-09-12T09:20:28;25.10;99.90
22491;DHT22;11412;50.802;4.350;2023-09-12T09:22:58;25.40;99.90
22491;DHT22;11412;50.802;4.350;2023-09-12T09:25:24;25.70;99.90
22491;DHT22;11412;50.802;4.350;2023-09-12T09:27:50;25.70;99.90
22491;DHT22;11412;50.802;4.350;2023-09-12T09:30:16;25.80;99.90
22491;DHT22;11412;50.802;4.350;2023-09-12T09:32:43;25.60;99.90
22491;DHT22;11412;50.802;4.350;2023-09-12T09:35:11;26.00;99.90
22491;DHT22;11412;50.802;4.350;2023-09-12T09:37:37;26.10;99.90
22491;DHT22;11412;50.802;4.350;2023-09-12T09:40:07;26.40;99.90
22491;DHT22;11412;50.802;4.350;2023-09-12T09:42:33;26.40;99.90
22491;DHT22;11412;50.802;4.350;2023-09-12T09:44:59;26.20;99.90
22491;DHT22;11412;50.802;4.350;2023-09-12T09:47:25;26.20;99.90
22491;DHT22;11412;50.802;4.350;2023-09-12T09:49:51;26.00;99.90
22491;DHT22;11412;50.802;4.350;2023-09-12T09:52:25;26.00;99.90
22491;DHT22;11412;50.802;4.350;2023-09-12T09:54:52;26.20;99.90
22491;DHT22;11412;50.802;4.350;2023-09-12T09:57:18;26.20;99.90
22491;DHT22;11412;50.802;4.350;2023-09-12T09:59:49;26.20;99.90
22491;DHT22;11412;50.802;4.350;2023-09-12T10:02:18;26.20;99.90
22491;DHT22;11412;50.802;4.350;2023-09-12T10:04:48;26.30;99.90
22491;DHT22;11412;50.802;4.350;2023-09-12T10:07:15;26.90;99.90
22491;DHT22;11412;50.802;4.350;2023-09-12T10:09:41;27.10;99.90
22491;DHT22;11412;50.802;4.350;2023-09-12T10:12:10;27.40;99.90
22491;DHT22;11412;50.802;4.350;2023-09-12T10:14:39;27.80;99.90
22491;DHT22;11412;50.802;4.350;2023-09-12T10:17:06;27.40;99.90
22491;DHT22;11412;50.802;4.350;2023-09-12T10:19:55;26.90;99.90
22491;DHT22;11412;50.802;4.350;2023-09-12T10:22:25;26.30;99.90
22491;DHT22;11412;50.802;4.350;2023-09-12T10:24:53;26.00;99.90
22491;DHT22;11412;50.802;4.350;2023-09-12T10:27:22;25.90;99.90
22491;DHT22;11412;50.802;4.350;2023-09-12T10:29:50;26.30;99.90
22491;DHT22;11412;50.802;4.350;2023-09-12T10:32:19;26.50;99.90
22491;DHT22;11412;50.802;4.350;2023-09-12T10:34:46;26.50;99.90
22491;DHT22;11412;50.802;4.350;2023-09-12T10:37:15;26.60;99.90
22491;DHT22;11412;50.802;4.350;2023-09-12T10:39:43;26.90;99.90
22491;DHT22;11412;50.802;4.350;2023-09-12T10:42:09;27.00;99.90
22491;DHT22;11412;50.802;4.350;2023-09-12T10:44:36;27.40;99.90
22491;DHT22;11412;50.802;4.350;2023-09-12T10:47:02;27.30;99.90
22491;DHT22;11412;50.802;4.350;2023-09-12T10:49:30;27.40;99.90
22491;DHT22;11412;50.802;4.350;2023-09-12T10:51:57;27.40;99.90
22491;DHT22;11412;50.802;4.350;2023-09-12T10:54:24;27.50;99.90
22491;DHT22;11412;50.802;4.350;2023-09-12T10:57:08;27.90;99.90
22491;DHT22;11412;50.802;4.350;2023-09-12T10:59:34;28.10;99.90
22491;DHT22;11412;50.802;4.350;2023-09-12T11:02:36;28.10;99.90
22491;DHT22;11412;50.802;4.350;2023-09-12T11:05:06;27.60;99.90
22491;DHT22;11412;50.802;4.350;2023-09-12T11:12:51;26.70;99.90
22491;DHT22;11412;50.802;4.350;2023-09-12T11:15:22;26.50;99.90
22491;DHT22;11412;50.802;4.350;2023-09-12T11:17:49;26.20;99.90
22491;DHT22;11412;50.802;4.350;2023-09-12T11:20:16;26.50;99.90
22491;DHT22;11412;50.802;4.350;2023-09-12T11:22:43;27.00;99.90
22491;DHT22;11412;50.802;4.350;2023-09-12T11:25:17;27.20;99.90
22491;DHT22;11412;50.802;4.350;2023-09-12T11:27:44;27.30;99.90
22491;DHT22;11412;50.802;4.350;2023-09-12T11:30:11;27.20;99.90
22491;DHT22;11412;50.802;4.350;2023-09-12T11:32:37;27.20;99.90
22491;DHT22;11412;50.802;4.350;2023-09-12T11:35:07;27.50;99.90
22491;DHT22;11412;50.802;4.350;2023-09-12T11:37:34;27.70;99.90
22491;DHT22;11412;50.802;4.350;2023-09-12T11:42:40;28.30;99.90
22491;DHT22;11412;50.802;4.350;2023-09-12T11:45:10;28.50;99.90
22491;DHT22;11412;50.802;4.350;2023-09-12T11:47:43;28.60;99.90
22491;DHT22;11412;50.802;4.350;2023-09-12T11:50:31;28.70;99.90
22491;DHT22;11412;50.802;4.350;2023-09-12T11:53:06;28.90;99.90
22491;DHT22;11412;50.802;4.350;2023-09-12T11:55:47;28.70;99.90
22491;DHT22;11412;50.802;4.350;2023-09-12T11:58:15;28.70;99.90
22491;DHT22;11412;50.802;4.350;2023-09-12T12:00:52;28.90;99.90
22491;DHT22;11412;50.802;4.350;2023-09-12T12:03:20;29.30;99.90
22491;DHT22;11412;50.802;4.350;2023-09-12T12:05:46;29.00;99.90
22491;DHT22;11412;50.802;4.350;2023-09-12T12:08:14;28.40;99.90
22491;DHT22;11412;50.802;4.350;2023-09-12T12:10:40;27.80;99.90
22491;DHT22;11412;50.802;4.350;2023-09-12T12:13:17;27.50;99.90
22491;DHT22;11412;50.802;4.350;2023-09-12T12:15:43;27.50;99.90
22491;DHT22;11412;50.802;4.350;2023-09-12T12:18:08;27.50;99.90
22491;DHT22;11412;50.802;4.350;2023-09-12T12:20:34;27.00;99.90
22491;DHT22;11412;50.802;4.350;2023-09-12T12:23:00;27.00;99.90
22491;DHT22;11412;50.802;4.350;2023-09-12T12:25:26;26.90;99.90
22491;DHT22;11412;50.802;4.350;2023-09-12T12:27:51;26.70;99.90
22491;DHT22;11412;50.802;4.350;2023-09-12T12:30:18;26.80;99.90
22491;DHT22;11412;50.802;4.350;2023-09-12T12:32:45;27.00;99.90
22491;DHT22;11412;50.802;4.350;2023-09-12T12:35:18;27.00;99.90
22491;DHT22;11412;50.802;4.350;2023-09-12T12:37:44;27.00;99.90
22491;DHT22;11412;50.802;4.350;2023-09-12T12:40:13;26.70;99.90
22491;DHT22;11412;50.802;4.350;2023-09-12T12:42:40;26.50;99.90
22491;DHT22;11412;50.802;4.350;2023-09-12T12:45:18;26.50;99.90
22491;DHT22;11412;50.802;4.350;2023-09-12T12:47:45;26.50;99.90
22491;DHT22;11412;50.802;4.350;2023-09-12T12:50:15;26.10;99.90
22491;DHT22;11412;50.802;4.350;2023-09-12T12:52:41;26.10;99.90
22491;DHT22;11412;50.802;4.350;2023-09-12T12:55:10;26.00;99.90
22491;DHT22;11412;50.802;4.350;2023-09-12T12:57:40;25.90;99.90
22491;DHT22;11412;50.802;4.350;2023-09-12T13:00:11;25.80;99.90
22491;DHT22;11412;50.802;4.350;2023-09-12T13:02:38;25.80;99.90
22491;DHT22;11412;50.802;4.350;2023-09-12T13:05:06;25.80;99.90
22491;DHT22;11412;50.802;4.350;2023-09-12T13:07:34;25.90;99.90
22491;DHT22;11412;50.802;4.350;2023-09-12T13:10:01;25.80;99.90
22491;DHT22;11412;50.802;4.350;2023-09-12T13:12:30;25.70;99.90
22491;DHT22;11412;50.802;4.350;2023-09-12T13:14:56;25.80;99.90
22491;DHT22;11412;50.802;4.350;2023-09-12T13:17:21;25.80;99.90
22491;DHT22;11412;50.802;4.350;2023-09-12T13:19:47;25.70;99.90
22491;DHT22;11412;50.802;4.350;2023-09-12T13:22:13;25.80;99.90
22491;DHT22;11412;50.802;4.350;2023-09-12T13:24:38;25.50;99.90
22491;DHT22;11412;50.802;4.350;2023-09-12T13:27:04;25.40;99.90
22491;DHT22;11412;50.802;4.350;2023-09-12T13:29:30;25.30;99.90
22491;DHT22;11412;50.802;4.350;2023-09-12T13:31:56;25.20;99.90
22491;DHT22;11412;50.802;4.350;2023-09-12T13:34:21;25.20;99.90
22491;DHT22;11412;50.802;4.350;2023-09-12T13:36:48;25.20;99.90
22491;DHT22;11412;50.802;4.350;2023-09-12T13:39:14;25.20;99.90
22491;DHT22;11412;50.802;4.350;2023-09-12T13:41:40;25.10;99.90
22491;DHT22;11412;50.802;4.350;2023-09-12T13:44:05;25.10;99.90
22491;DHT22;11412;50.802;4.350;2023-09-12T13:46:31;25.00;99.90
22491;DHT22;11412;50.802;4.350;2023-09-12T13:48:57;25.00;99.90
22491;DHT22;11412;50.802;4.350;2023-09-12T13:51:29;25.00;99.90
22491;DHT22;11412;50.802;4.350;2023-09-12T13:53:55;24.90;99.90
22491;DHT22;11412;50.802;4.350;2023-09-12T13:56:20;24.80;99.90
22491;DHT22;11412;50.802;4.350;2023-09-12T13:58:46;24.90;99.90
22491;DHT22;11412;50.802;4.350;2023-09-12T14:01:12;24.90;99.90
22491;DHT22;11412;50.802;4.350;2023-09-12T14:03:37;24.80;99.90
22491;DHT22;11412;50.802;4.350;2023-09-12T14:06:04;24.80;99.90
22491;DHT22;11412;50.802;4.350;2023-09-12T14:08:29;24.70;99.90
22491;DHT22;11412;50.802;4.350;2023-09-12T14:10:55;24.60;99.90
22491;DHT22;11412;50.802;4.350;2023-09-12T14:13:21;24.60;99.90
22491;DHT22;11412;50.802;4.350;2023-09-12T14:15:47;24.60;99.90
22491;DHT22;11412;50.802;4.350;2023-09-12T14:18:15;24.60;99.90
22491;DHT22;11412;50.802;4.350;2023-09-12T14:20:41;24.60;99.90
22491;DHT22;11412;50.802;4.350;2023-09-12T14:23:06;24.50;99.90
22491;DHT22;11412;50.802;4.350;2023-09-12T14:25:32;24.50;99.90
22491;DHT22;11412;50.802;4.350;2023-09-12T14:27:58;24.60;99.90
22491;DHT22;11412;50.802;4.350;2023-09-12T14:30:24;24.60;99.90
22491;DHT22;11412;50.802;4.350;2023-09-12T14:32:52;24.60;99.90
22491;DHT22;11412;50.802;4.350;2023-09-12T14:35:17;24.60;99.90
22491;DHT22;11412;50.802;4.350;2023-09-12T14:37:43;24.60;99.90
22491;DHT22;11412;50.802;4.350;2023-09-12T14:40:09;24.50;99.90
22491;DHT22;11412;50.802;4.350;2023-09-12T14:42:36;24.50;99.90
22491;DHT22;11412;50.802;4.350;2023-09-12T14:45:02;24.50;99.90
22491;DHT22;11412;50.802;4.350;2023-09-12T14:47:28;24.50;99.90
22491;DHT22;11412;50.802;4.350;2023-09-12T14:49:55;24.50;99.90
22491;DHT22;11412;50.802;4.350;2023-09-12T14:52:21;24.50;99.90
22491;DHT22;11412;50.802;4.350;2023-09-12T14:54:47;24.50;99.90
22491;DHT22;11412;50.802;4.350;2023-09-12T14:57:12;24.50;99.90
22491;DHT22;11412;50.802;4.350;2023-09-12T14:59:38;24.40;99.90
22491;DHT22;11412;50.802;4.350;2023-09-12T15:02:04;24.40;99.90
22491;DHT22;11412;50.802;4.350;2023-09-12T15:04:30;24.30;99.90
22491;DHT22;11412;50.802;4.350;2023-09-12T15:06:55;24.30;99.90
22491;DHT22;11412;50.802;4.350;2023-09-12T15:09:21;24.20;99.90
22491;DHT22;11412;50.802;4.350;2023-09-12T15:11:47;24.10;99.90
22491;DHT22;11412;50.802;4.350;2023-09-12T15:14:12;24.20;99.90
22491;DHT22;11412;50.802;4.350;2023-09-12T15:16:38;24.30;99.90
22491;DHT22;11412;50.802;4.350;2023-09-12T15:19:04;24.30;99.90
22491;DHT22;11412;50.802;4.350;2023-09-12T15:21:29;24.30;99.90
22491;DHT22;11412;50.802;4.350;2023-09-12T15:23:55;24.20;99.90
22491;DHT22;11412;50.802;4.350;2023-09-12T15:26:21;24.10;99.90
22491;DHT22;11412;50.802;4.350;2023-09-12T15:28:47;24.10;99.90
22491;DHT22;11412;50.802;4.350;2023-09-12T15:31:12;24.00;99.90
22491;DHT22;11412;50.802;4.350;2023-09-12T15:33:38;24.00;99.90
22491;DHT22;11412;50.802;4.350;2023-09-12T15:36:04;24.00;99.90
22491;DHT22;11412;50.802;4.350;2023-09-12T15:38:29;24.00;99.90
22491;DHT22;11412;50.802;4.350;2023-09-12T15:40:55;24.00;99.90
22491;DHT22;11412;50.802;4.350;2023-09-12T15:43:22;23.90;99.90